sensor_id;sensor_type;location;lat;lon;timestamp;temperature;humidity
5899;DHT22;2975;50.956;6.962;2022-08-21T00:02:19;17.00;99.90
5899;DHT22;2975;50.956;6.962;2022-08-21T00:04:46;17.00;99.90
5899;DHT22;2975;50.956;6.962;2022-08-21T00:07:12;17.00;99.90
5899;DHT22;2975;50.956;6.962;2022-08-21T00:09:38;16.90;99.90
5899;DHT22;2975;50.956;6.962;2022-08-21T00:12:05;16.90;99.90
5899;DHT22;2975;50.956;6.962;2022-08-21T00:14:31;16.90;99.90
5899;DHT22;2975;50.956;6.962;2022-08-21T00:16:57;16.90;99.90
5899;DHT22;2975;50.956;6.962;2022-08-21T00:19:23;16.90;99.90
5899;DHT22;2975;50.956;6.962;2022-08-21T00:21:51;16.90;99.90
5899;DHT22;2975;50.956;6.962;2022-08-21T00:24:18;16.80;99.90
5899;DHT22;2975;50.956;6.962;2022-08-21T00:26:44;16.80;99.90
5899;DHT22;2975;50.956;6.962;2022-08-21T00:29:10;16.80;99.90
5899;DHT22;2975;50.956;6.962;2022-08-21T00:31:37;16.80;99.90
5899;DHT22;2975;50.956;6.962;2022-08-21T00:34:03;16.80;99.90
5899;DHT22;2975;50.956;6.962;2022-08-21T00:36:29;16.80;99.90
5899;DHT22;2975;50.956;6.962;2022-08-21T00:38:55;16.70;99.90
5899;DHT22;2975;50.956;6.962;2022-08-21T00:41:21;16.70;99.90
5899;DHT22;2975;50.956;6.962;2022-08-21T00:43:49;16.60;99.90
5899;DHT22;2975;50.956;6.962;2022-08-21T00:46:15;16.60;99.90
5899;DHT22;2975;50.956;6.962;2022-08-21T00:48:41;16.60;99.90
5899;DHT22;2975;50.956;6.962;2022-08-21T00:51:11;16.50;99.90
5899;DHT22;2975;50.956;6.962;2022-08-21T00:53:42;16.50;99.90
5899;DHT22;2975;50.956;6.962;2022-08-21T00:56:10;16.50;99.90
5899;DHT22;2975;50.956;6.962;2022-08-21T00:58:37;16.50;99.90
5899;DHT22;2975;50.956;6.962;2022-08-21T01:01:06;16.50;99.90
5899;DHT22;2975;50.956;6.962;2022-08-21T01:03:33;16.50;99.90
5899;DHT22;2975;50.956;6.962;2022-08-21T01:05:58;16.50;99.90
5899;DHT22;2975;50.956;6.962;2022-08-21T01:08:25;16.50;99.90
5899;DHT22;2975;50.956;6.962;2022-08-21T01:10:52;16.40;99.90
5899;DHT22;2975;50.956;6.962;2022-08-21T01:13:19;16.40;99.90
5899;DHT22;2975;50.956;6.962;2022-08-21T01:15:48;16.40;99.90
5899;DHT22;2975;50.956;6.962;2022-08-21T01:18:16;16.40;99.90
5899;DHT22;2975;50.956;6.962;2022-08-21T01:20:44;16.50;99.90
5899;DHT22;2975;50.956;6.962;2022-08-21T01:23:11;16.60;99.90
5899;DHT22;2975;50.956;6.962;2022-08-21T01:25:37;16.60;99.90
5899;DHT22;2975;50.956;6.962;2022-08-21T01:28:09;16.60;99.90
5899;DHT22;2975;50.956;6.962;2022-08-21T01:30:37;16.50;99.90
5899;DHT22;2975;50.956;6.962;2022-08-21T01:33:04;16.50;99.90
5899;DHT22;2975;50.956;6.962;2022-08-21T01:35:30;16.50;99.90
5899;DHT22;2975;50.956;6.962;2022-08-21T01:37:56;16.50;99.90
5899;DHT22;2975;50.956;6.962;2022-08-21T01:40:21;16.40;99.90
5899;DHT22;2975;50.956;6.962;2022-08-21T01:42:47;16.30;99.90
5899;DHT22;2975;50.956;6.962;2022-08-21T01:45:15;16.30;99.90
5899;DHT22;2975;50.956;6.962;2022-08-21T01:47:41;16.30;99.90
5899;DHT22;2975;50.956;6.962;2022-08-21T01:50:11;16.20;99.90
5899;DHT22;2975;50.956;6.962;2022-08-21T01:52:37;16.20;99.90
5899;DHT22;2975;50.956;6.962;2022-08-21T01:55:04;16.20;99.90
5899;DHT22;2975;50.956;6.962;2022-08-21T01:57:30;16.20;99.90
5899;DHT22;2975;50.956;6.962;2022-08-21T01:59:56;16.20;99.90
5899;DHT22;2975;50.956;6.962;2022-08-21T02:02:22;16.20;99.90
5899;DHT22;2975;50.956;6.962;2022-08-21T02:04:47;16.20;99.90
5899;DHT22;2975;50.956;6.962;2022-08-21T02:07:13;16.20;99.90
5899;DHT22;2975;50.956;6.962;2022-08-21T02:09:40;16.10;99.90
5899;DHT22;2975;50.956;6.962;2022-08-21T02:12:08;16.00;99.90
5899;DHT22;2975;50.956;6.962;2022-08-21T02:14:34;16.00;99.90
5899;DHT22;2975;50.956;6.962;2022-08-21T02:17:01;15.90;99.90
5899;DHT22;2975;50.956;6.962;2022-08-21T02:19:26;15.90;99.90
5899;DHT22;2975;50.956;6.962;2022-08-21T02:21:52;15.80;99.90
5899;DHT22;2975;50.956;6.962;2022-08-21T02:24:17;15.80;99.90
5899;DHT22;2975;50.956;6.962;2022-08-21T02:26:43;15.80;99.90
5899;DHT22;2975;50.956;6.962;2022-08-21T02:29:09;15.70;99.90
5899;DHT22;2975;50.956;6.962;2022-08-21T02:31:34;15.70;99.90
5899;DHT22;2975;50.956;6.962;2022-08-21T02:34:00;15.90;99.90
5899;DHT22;2975;50.956;6.962;2022-08-21T02:36:26;16.00;99.90
5899;DHT22;2975;50.956;6.962;2022-08-21T02:38:52;16.00;99.90
5899;DHT22;2975;50.956;6.962;2022-08-21T02:41:20;16.00;99.90
5899;DHT22;2975;50.956;6.962;2022-08-21T02:43:47;16.00;99.90
5899;DHT22;2975;50.956;6.962;2022-08-21T02:46:15;15.90;99.90
5899;DHT22;2975;50.956;6.962;2022-08-21T02:48:41;15.90;99.90
5899;DHT22;2975;50.956;6.962;2022-08-21T02:51:10;15.90;99.90
5899;DHT22;2975;50.956;6.962;2022-08-21T02:53:36;16.00;99.90
5899;DHT22;2975;50.956;6.962;2022-08-21T02:56:05;15.90;99.90
5899;DHT22;2975;50.956;6.962;2022-08-21T02:58:34;15.90;99.90
5899;DHT22;2975;50.956;6.962;2022-08-21T03:01:01;15.80;99.90
5899;DHT22;2975;50.956;6.962;2022-08-21T03:03:28;15.80;99.90
5899;DHT22;2975;50.956;6.962;2022-08-21T03:05:54;15.80;99.90
5899;DHT22;2975;50.956;6.962;2022-08-21T03:08:21;15.70;99.90
5899;DHT22;2975;50.956;6.962;2022-08-21T03:10:50;15.70;99.90
5899;DHT22;2975;50.956;6.962;2022-08-21T03:13:17;15.70;99.90
5899;DHT22;2975;50.956;6.962;2022-08-21T03:15:43;15.70;99.90
5899;DHT22;2975;50.956;6.962;2022-08-21T03:18:10;15.70;99.90
5899;DHT22;2975;50.956;6.962;2022-08-21T03:20:38;15.70;99.90
5899;DHT22;2975;50.956;6.962;2022-08-21T03:23:05;15.90;99.90
5899;DHT22;2975;50.956;6.962;2022-08-21T03:25:32;15.90;99.90
5899;DHT22;2975;50.956;6.962;2022-08-21T03:27:58;16.00;99.90
5899;DHT22;2975;50.956;6.962;2022-08-21T03:30:24;16.10;99.90
5899;DHT22;2975;50.956;6.962;2022-08-21T03:32:50;16.10;99.90
5899;DHT22;2975;50.956;6.962;2022-08-21T03:35:17;16.10;99.90
5899;DHT22;2975;50.956;6.962;2022-08-21T03:37:42;16.10;99.90
5899;DHT22;2975;50.956;6.962;2022-08-21T03:40:10;16.10;99.90
5899;DHT22;2975;50.956;6.962;2022-08-21T03:42:37;16.10;99.90
5899;DHT22;2975;50.956;6.962;2022-08-21T03:45:03;16.10;99.90
5899;DHT22;2975;50.956;6.962;2022-08-21T03:47:29;16.10;99.90
5899;DHT22;2975;50.956;6.962;2022-08-21T03:49:55;16.20;99.90
5899;DHT22;2975;50.956;6.962;2022-08-21T03:52:21;16.20;99.90
5899;DHT22;2975;50.956;6.962;2022-08-21T03:54:47;16.10;99.90
5899;DHT22;2975;50.956;6.962;2022-08-21T03:57:13;16.00;99.90
5899;DHT22;2975;50.956;6.962;2022-08-21T03:59:38;16.00;99.90
5899;DHT22;2975;50.956;6.962;2022-08-21T04:02:08;16.00;99.90
5899;DHT22;2975;50.956;6.962;2022-08-21T04:04:34;16.00;99.90
5899;DHT22;2975;50.956;6.962;2022-08-21T04:07:00;16.00;99.90
5899;DHT22;2975;50.956;6.962;2022-08-21T04:09:26;16.00;99.90
5899;DHT22;2975;50.956;6.962;2022-08-21T04:11:52;15.90;99.90
5899;DHT22;2975;50.956;6.962;2022-08-21T04:14:18;15.90;99.90
5899;DHT22;2975;50.956;6.962;2022-08-21T04:16:44;15.90;99.90
5899;DHT22;2975;50.956;6.962;2022-08-21T04:19:11;15.90;99.90
5899;DHT22;2975;50.956;6.962;2022-08-21T04:21:37;15.90;99.90
5899;DHT22;2975;50.956;6.962;2022-08-21T04:24:04;15.90;99.90
5899;DHT22;2975;50.956;6.962;2022-08-21T04:26:30;16.00;99.90
5899;DHT22;2975;50.956;6.962;2022-08-21T04:28:57;15.90;99.90
5899;DHT22;2975;50.956;6.962;2022-08-21T04:31:24;15.80;99.90
5899;DHT22;2975;50.956;6.962;2022-08-21T04:33:50;15.80;99.90
5899;DHT22;2975;50.956;6.962;2022-08-21T04:36:16;15.80;99.90
5899;DHT22;2975;50.956;6.962;2022-08-21T04:38:41;15.80;99.90
5899;DHT22;2975;50.956;6.962;2022-08-21T04:41:07;15.80;99.90
5899;DHT22;2975;50.956;6.962;2022-08-21T04:43:33;15.70;99.90
5899;DHT22;2975;50.956;6.962;2022-08-21T04:45:59;15.70;99.90
5899;DHT22;2975;50.956;6.962;2022-08-21T04:48:26;15.70;99.90
5899;DHT22;2975;50.956;6.962;2022-08-21T04:56:22;15.90;99.90
5899;DHT22;2975;50.956;6.962;2022-08-21T04:58:50;16.00;99.90
5899;DHT22;2975;50.956;6.962;2022-08-21T05:01:21;16.00;99.90
5899;DHT22;2975;50.956;6.962;2022-08-21T05:03:49;16.10;99.90
5899;DHT22;2975;50.956;6.962;2022-08-21T05:06:16;16.20;99.90
5899;DHT22;2975;50.956;6.962;2022-08-21T05:08:44;16.20;99.90
5899;DHT22;2975;50.956;6.962;2022-08-21T05:11:11;16.40;99.90
5899;DHT22;2975;50.956;6.962;2022-08-21T05:13:37;16.40;99.90
5899;DHT22;2975;50.956;6.962;2022-08-21T05:16:03;16.60;99.90
5899;DHT22;2975;50.956;6.962;2022-08-21T05:18:28;16.70;99.90
5899;DHT22;2975;50.956;6.962;2022-08-21T05:20:54;17.30;99.90
5899;DHT22;2975;50.956;6.962;2022-08-21T05:23:20;18.40;99.90
5899;DHT22;2975;50.956;6.962;2022-08-21T05:25:46;19.70;99.90
5899;DHT22;2975;50.956;6.962;2022-08-21T05:28:11;20.80;99.90
5899;DHT22;2975;50.956;6.962;2022-08-21T05:30:38;22.00;99.90
5899;DHT22;2975;50.956;6.962;2022-08-21T05:33:05;23.00;98.60
5899;DHT22;2975;50.956;6.962;2022-08-21T05:37:58;24.60;93.70
5899;DHT22;2975;50.956;6.962;2022-08-21T05:40:23;25.60;92.10
5899;DHT22;2975;50.956;6.962;2022-08-21T05:42:51;26.30;90.70
5899;DHT22;2975;50.956;6.962;2022-08-21T05:45:17;27.10;87.60
5899;DHT22;2975;50.956;6.962;2022-08-21T05:47:43;27.50;86.70
5899;DHT22;2975;50.956;6.962;2022-08-21T05:50:08;28.30;81.70
5899;DHT22;2975;50.956;6.962;2022-08-21T05:52:34;29.00;77.40
5899;DHT22;2975;50.956;6.962;2022-08-21T05:55:00;29.40;75.00
5899;DHT22;2975;50.956;6.962;2022-08-21T05:57:26;29.90;72.40
5899;DHT22;2975;50.956;6.962;2022-08-21T05:59:51;30.20;70.30
5899;DHT22;2975;50.956;6.962;2022-08-21T06:02:19;30.70;68.30
5899;DHT22;2975;50.956;6.962;2022-08-21T06:04:44;31.00;66.70
5899;DHT22;2975;50.956;6.962;2022-08-21T06:07:10;31.50;63.80
5899;DHT22;2975;50.956;6.962;2022-08-21T06:09:36;31.70;62.60
5899;DHT22;2975;50.956;6.962;2022-08-21T06:12:05;31.70;61.40
5899;DHT22;2975;50.956;6.962;2022-08-21T06:14:30;31.60;60.90
5899;DHT22;2975;50.956;6.962;2022-08-21T06:17:05;31.70;60.50
5899;DHT22;2975;50.956;6.962;2022-08-21T06:19:31;30.80;59.70
5899;DHT22;2975;50.956;6.962;2022-08-21T06:21:58;28.40;63.70
5899;DHT22;2975;50.956;6.962;2022-08-21T06:24:23;26.30;70.30
5899;DHT22;2975;50.956;6.962;2022-08-21T06:26:49;24.60;77.40
5899;DHT22;2975;50.956;6.962;2022-08-21T06:29:15;23.30;84.60
5899;DHT22;2975;50.956;6.962;2022-08-21T06:31:45;22.40;90.10
5899;DHT22;2975;50.956;6.962;2022-08-21T06:34:11;21.70;92.00
5899;DHT22;2975;50.956;6.962;2022-08-21T06:36:37;21.30;93.30
5899;DHT22;2975;50.956;6.962;2022-08-21T06:39:03;20.90;94.30
5899;DHT22;2975;50.956;6.962;2022-08-21T06:41:29;20.60;95.40
5899;DHT22;2975;50.956;6.962;2022-08-21T06:43:55;20.40;95.90
5899;DHT22;2975;50.956;6.962;2022-08-21T06:46:22;20.30;96.40
5899;DHT22;2975;50.956;6.962;2022-08-21T06:48:47;20.20;96.70
5899;DHT22;2975;50.956;6.962;2022-08-21T06:51:13;20.10;97.10
5899;DHT22;2975;50.956;6.962;2022-08-21T06:53:39;20.00;98.00
5899;DHT22;2975;50.956;6.962;2022-08-21T06:56:04;19.90;98.20
5899;DHT22;2975;50.956;6.962;2022-08-21T06:58:30;20.00;98.20
5899;DHT22;2975;50.956;6.962;2022-08-21T07:00:56;19.90;97.70
5899;DHT22;2975;50.956;6.962;2022-08-21T07:03:34;19.90;96.40
5899;DHT22;2975;50.956;6.962;2022-08-21T07:06:01;19.80;96.10
5899;DHT22;2975;50.956;6.962;2022-08-21T07:08:27;19.70;96.50
5899;DHT22;2975;50.956;6.962;2022-08-21T07:10:56;19.60;96.20
5899;DHT22;2975;50.956;6.962;2022-08-21T07:13:22;19.60;96.40
5899;DHT22;2975;50.956;6.962;2022-08-21T07:15:47;19.70;96.80
5899;DHT22;2975;50.956;6.962;2022-08-21T07:18:13;19.80;96.70
5899;DHT22;2975;50.956;6.962;2022-08-21T07:20:40;19.90;96.60
5899;DHT22;2975;50.956;6.962;2022-08-21T07:23:15;20.00;96.00
5899;DHT22;2975;50.956;6.962;2022-08-21T07:25:42;20.00;95.50
5899;DHT22;2975;50.956;6.962;2022-08-21T07:28:08;20.10;95.60
5899;DHT22;2975;50.956;6.962;2022-08-21T07:30:34;20.00;95.00
5899;DHT22;2975;50.956;6.962;2022-08-21T07:32:59;20.20;94.80
5899;DHT22;2975;50.956;6.962;2022-08-21T07:35:25;20.40;94.40
5899;DHT22;2975;50.956;6.962;2022-08-21T07:37:53;20.50;94.50
5899;DHT22;2975;50.956;6.962;2022-08-21T07:40:18;20.70;94.10
5899;DHT22;2975;50.956;6.962;2022-08-21T07:42:47;20.60;94.20
5899;DHT22;2975;50.956;6.962;2022-08-21T07:45:15;20.50;93.90
5899;DHT22;2975;50.956;6.962;2022-08-21T07:47:41;20.50;93.90
5899;DHT22;2975;50.956;6.962;2022-08-21T07:50:07;20.50;93.80
5899;DHT22;2975;50.956;6.962;2022-08-21T07:52:33;20.50;94.00
5899;DHT22;2975;50.956;6.962;2022-08-21T07:54:59;20.70;94.10
5899;DHT22;2975;50.956;6.962;2022-08-21T07:57:25;20.90;93.80
5899;DHT22;2975;50.956;6.962;2022-08-21T07:59:51;20.90;93.60
5899;DHT22;2975;50.956;6.962;2022-08-21T08:02:27;20.90;93.40
5899;DHT22;2975;50.956;6.962;2022-08-21T08:04:53;20.80;93.60
5899;DHT22;2975;50.956;6.962;2022-08-21T08:07:19;20.90;93.40
5899;DHT22;2975;50.956;6.962;2022-08-21T08:09:45;21.00;93.20
5899;DHT22;2975;50.956;6.962;2022-08-21T08:12:11;21.00;93.10
5899;DHT22;2975;50.956;6.962;2022-08-21T08:14:37;21.00;93.10
5899;DHT22;2975;50.956;6.962;2022-08-21T08:17:02;21.20;93.30
5899;DHT22;2975;50.956;6.962;2022-08-21T08:19:28;21.40;93.20
5899;DHT22;2975;50.956;6.962;2022-08-21T08:21:54;21.50;92.80
5899;DHT22;2975;50.956;6.962;2022-08-21T08:24:20;21.60;92.70
5899;DHT22;2975;50.956;6.962;2022-08-21T08:26:46;21.70;92.60
5899;DHT22;2975;50.956;6.962;2022-08-21T08:29:12;21.80;92.20
5899;DHT22;2975;50.956;6.962;2022-08-21T08:31:38;21.80;91.80
5899;DHT22;2975;50.956;6.962;2022-08-21T08:34:04;21.80;91.50
5899;DHT22;2975;50.956;6.962;2022-08-21T08:36:35;21.80;91.40
5899;DHT22;2975;50.956;6.962;2022-08-21T08:39:02;21.90;91.30
5899;DHT22;2975;50.956;6.962;2022-08-21T08:41:28;21.90;91.30
5899;DHT22;2975;50.956;6.962;2022-08-21T08:44:00;21.90;91.80
5899;DHT22;2975;50.956;6.962;2022-08-21T08:46:37;22.00;91.20
5899;DHT22;2975;50.956;6.962;2022-08-21T08:49:20;22.00;90.80
5899;DHT22;2975;50.956;6.962;2022-08-21T08:55:05;21.70;91.10
5899;DHT22;2975;50.956;6.962;2022-08-21T08:57:32;21.70;90.90
5899;DHT22;2975;50.956;6.962;2022-08-21T09:00:00;21.70;91.20
5899;DHT22;2975;50.956;6.962;2022-08-21T09:02:26;21.80;91.00
5899;DHT22;2975;50.956;6.962;2022-08-21T09:04:55;21.80;91.20
5899;DHT22;2975;50.956;6.962;2022-08-21T09:07:28;21.90;90.80
5899;DHT22;2975;50.956;6.962;2022-08-21T09:10:19;22.30;90.10
5899;DHT22;2975;50.956;6.962;2022-08-21T09:12:59;22.40;89.60
5899;DHT22;2975;50.956;6.962;2022-08-21T09:24:02;22.60;88.80
5899;DHT22;2975;50.956;6.962;2022-08-21T09:27:02;22.80;88.30
5899;DHT22;2975;50.956;6.962;2022-08-21T09:29:31;23.00;88.00
5899;DHT22;2975;50.956;6.962;2022-08-21T09:31:58;22.90;87.20
5899;DHT22;2975;50.956;6.962;2022-08-21T09:34:29;22.80;87.00
5899;DHT22;2975;50.956;6.962;2022-08-21T09:36:57;22.90;87.50
5899;DHT22;2975;50.956;6.962;2022-08-21T09:39:32;23.00;86.80
5899;DHT22;2975;50.956;6.962;2022-08-21T09:42:04;22.90;86.40
5899;DHT22;2975;50.956;6.962;2022-08-21T09:44:32;23.00;86.10
5899;DHT22;2975;50.956;6.962;2022-08-21T09:46:59;22.90;86.60
5899;DHT22;2975;50.956;6.962;2022-08-21T09:49:36;23.00;86.60
5899;DHT22;2975;50.956;6.962;2022-08-21T09:52:14;23.20;86.70
5899;DHT22;2975;50.956;6.962;2022-08-21T09:54:41;23.20;84.70
5899;DHT22;2975;50.956;6.962;2022-08-21T09:59:54;23.00;85.20
5899;DHT22;2975;50.956;6.962;2022-08-21T10:02:33;23.10;85.90
5899;DHT22;2975;50.956;6.962;2022-08-21T10:05:03;23.30;85.40
5899;DHT22;2975;50.956;6.962;2022-08-21T10:07:30;23.40;84.70
5899;DHT22;2975;50.956;6.962;2022-08-21T10:17:54;23.70;82.60
5899;DHT22;2975;50.956;6.962;2022-08-21T10:20:32;23.50;82.90
5899;DHT22;2975;50.956;6.962;2022-08-21T10:23:20;23.60;83.40
5899;DHT22;2975;50.956;6.962;2022-08-21T10:31:07;23.70;81.70
5899;DHT22;2975;50.956;6.962;2022-08-21T10:36:23;23.70;81.60
5899;DHT22;2975;50.956;6.962;2022-08-21T10:41:44;23.90;82.00
5899;DHT22;2975;50.956;6.962;2022-08-21T10:44:30;24.00;81.70
5899;DHT22;2975;50.956;6.962;2022-08-21T10:47:08;24.20;80.80
5899;DHT22;2975;50.956;6.962;2022-08-21T10:55:36;24.50;78.10
5899;DHT22;2975;50.956;6.962;2022-08-21T10:58:09;24.40;79.20
5899;DHT22;2975;50.956;6.962;2022-08-21T11:00:43;24.30;80.20
5899;DHT22;2975;50.956;6.962;2022-08-21T11:03:15;24.30;78.00
5899;DHT22;2975;50.956;6.962;2022-08-21T11:05:49;24.30;76.90
5899;DHT22;2975;50.956;6.962;2022-08-21T11:08:33;24.40;77.50
5899;DHT22;2975;50.956;6.962;2022-08-21T11:11:57;24.70;77.40
5899;DHT22;2975;50.956;6.962;2022-08-21T11:17:08;24.70;77.20
5899;DHT22;2975;50.956;6.962;2022-08-21T11:19:54;25.00;75.60
5899;DHT22;2975;50.956;6.962;2022-08-21T11:22:37;25.10;74.90
5899;DHT22;2975;50.956;6.962;2022-08-21T11:25:26;25.10;75.10
5899;DHT22;2975;50.956;6.962;2022-08-21T11:28:09;25.10;74.80
5899;DHT22;2975;50.956;6.962;2022-08-21T11:31:17;25.20;74.30
5899;DHT22;2975;50.956;6.962;2022-08-21T11:36:41;25.10;74.60
5899;DHT22;2975;50.956;6.962;2022-08-21T11:48:20;25.00;72.90
5899;DHT22;2975;50.956;6.962;2022-08-21T11:50:51;25.00;72.10
5899;DHT22;2975;50.956;6.962;2022-08-21T11:53:30;25.00;72.90
5899;DHT22;2975;50.956;6.962;2022-08-21T11:56:20;25.10;72.70
5899;DHT22;2975;50.956;6.962;2022-08-21T11:59:01;25.10;72.60
5899;DHT22;2975;50.956;6.962;2022-08-21T12:01:33;25.30;71.90
5899;DHT22;2975;50.956;6.962;2022-08-21T12:04:41;25.60;69.80
5899;DHT22;2975;50.956;6.962;2022-08-21T12:06:54;25.20;71.00
5899;DHT22;2975;50.956;6.962;2022-08-21T12:12:12;25.10;71.30
5899;DHT22;2975;50.956;6.962;2022-08-21T12:14:45;25.20;70.80
5899;DHT22;2975;50.956;6.962;2022-08-21T12:17:21;25.50;70.10
5899;DHT22;2975;50.956;6.962;2022-08-21T12:20:01;25.70;69.30
5899;DHT22;2975;50.956;6.962;2022-08-21T12:22:39;26.00;68.30
5899;DHT22;2975;50.956;6.962;2022-08-21T12:25:08;25.60;68.10
5899;DHT22;2975;50.956;6.962;2022-08-21T12:27:49;25.50;68.90
5899;DHT22;2975;50.956;6.962;2022-08-21T12:33:02;25.60;68.90
5899;DHT22;2975;50.956;6.962;2022-08-21T12:35:40;25.40;69.20
5899;DHT22;2975;50.956;6.962;2022-08-21T12:40:52;25.40;69.40
5899;DHT22;2975;50.956;6.962;2022-08-21T12:43:40;25.50;69.50
5899;DHT22;2975;50.956;6.962;2022-08-21T12:46:19;25.60;68.90
5899;DHT22;2975;50.956;6.962;2022-08-21T12:49:14;25.60;68.90
5899;DHT22;2975;50.956;6.962;2022-08-21T12:51:54;25.70;68.20
5899;DHT22;2975;50.956;6.962;2022-08-21T12:54:30;25.60;68.20
5899;DHT22;2975;50.956;6.962;2022-08-21T12:57:01;25.70;68.50
5899;DHT22;2975;50.956;6.962;2022-08-21T12:59:27;25.80;67.90
5899;DHT22;2975;50.956;6.962;2022-08-21T13:01:54;25.90;67.50
5899;DHT22;2975;50.956;6.962;2022-08-21T13:04:39;25.80;67.70
5899;DHT22;2975;50.956;6.962;2022-08-21T13:07:11;25.80;67.10
5899;DHT22;2975;50.956;6.962;2022-08-21T13:09:46;25.70;67.00
5899;DHT22;2975;50.956;6.962;2022-08-21T13:12:13;25.80;67.70
5899;DHT22;2975;50.956;6.962;2022-08-21T13:14:42;25.80;67.50
5899;DHT22;2975;50.956;6.962;2022-08-21T13:17:09;25.90;68.00
5899;DHT22;2975;50.956;6.962;2022-08-21T13:19:35;26.00;68.80
5899;DHT22;2975;50.956;6.962;2022-08-21T13:22:01;26.00;69.30
5899;DHT22;2975;50.956;6.962;2022-08-21T13:24:30;26.20;68.90
5899;DHT22;2975;50.956;6.962;2022-08-21T13:26:56;26.40;68.40
5899;DHT22;2975;50.956;6.962;2022-08-21T13:29:28;26.70;66.70
5899;DHT22;2975;50.956;6.962;2022-08-21T13:31:57;26.70;66.00
5899;DHT22;2975;50.956;6.962;2022-08-21T13:34:28;26.60;66.40
5899;DHT22;2975;50.956;6.962;2022-08-21T13:37:00;26.50;66.20
5899;DHT22;2975;50.956;6.962;2022-08-21T13:39:28;26.20;67.40
5899;DHT22;2975;50.956;6.962;2022-08-21T13:42:00;26.20;68.10
5899;DHT22;2975;50.956;6.962;2022-08-21T13:44:50;26.30;67.30
5899;DHT22;2975;50.956;6.962;2022-08-21T13:47:17;26.40;68.00
5899;DHT22;2975;50.956;6.962;2022-08-21T13:49:46;26.70;66.70
5899;DHT22;2975;50.956;6.962;2022-08-21T13:52:20;26.60;66.50
5899;DHT22;2975;50.956;6.962;2022-08-21T13:54:59;26.50;66.40
5899;DHT22;2975;50.956;6.962;2022-08-21T13:57:31;26.50;66.60
5899;DHT22;2975;50.956;6.962;2022-08-21T14:02:46;26.50;65.50
5899;DHT22;2975;50.956;6.962;2022-08-21T14:05:27;26.40;66.10
5899;DHT22;2975;50.956;6.962;2022-08-21T14:08:12;26.30;66.20
5899;DHT22;2975;50.956;6.962;2022-08-21T14:10:48;26.40;66.70
5899;DHT22;2975;50.956;6.962;2022-08-21T14:13:42;26.50;66.30
5899;DHT22;2975;50.956;6.962;2022-08-21T14:16:21;26.60;65.70
5899;DHT22;2975;50.956;6.962;2022-08-21T14:18:53;26.50;65.50
5899;DHT22;2975;50.956;6.962;2022-08-21T14:21:34;26.50;65.20
5899;DHT22;2975;50.956;6.962;2022-08-21T14:24:30;26.20;65.40
5899;DHT22;2975;50.956;6.962;2022-08-21T14:26:56;26.00;66.40
5899;DHT22;2975;50.956;6.962;2022-08-21T14:29:26;26.00;66.60
5899;DHT22;2975;50.956;6.962;2022-08-21T14:31:55;26.20;65.90
5899;DHT22;2975;50.956;6.962;2022-08-21T14:34:23;26.20;65.10
5899;DHT22;2975;50.956;6.962;2022-08-21T14:36:50;26.10;65.00
5899;DHT22;2975;50.956;6.962;2022-08-21T14:39:16;26.00;65.40
5899;DHT22;2975;50.956;6.962;2022-08-21T14:41:43;25.80;65.40
5899;DHT22;2975;50.956;6.962;2022-08-21T14:44:11;25.60;66.30
5899;DHT22;2975;50.956;6.962;2022-08-21T14:46:37;25.30;66.60
5899;DHT22;2975;50.956;6.962;2022-08-21T14:49:03;25.30;66.60
5899;DHT22;2975;50.956;6.962;2022-08-21T14:51:29;25.20;66.90
5899;DHT22;2975;50.956;6.962;2022-08-21T14:53:55;25.00;67.40
5899;DHT22;2975;50.956;6.962;2022-08-21T14:56:21;24.80;67.00
5899;DHT22;2975;50.956;6.962;2022-08-21T14:58:49;24.70;68.00
5899;DHT22;2975;50.956;6.962;2022-08-21T15:01:18;24.60;68.10
5899;DHT22;2975;50.956;6.962;2022-08-21T15:03:45;24.60;67.90
5899;DHT22;2975;50.956;6.962;2022-08-21T15:06:11;24.60;68.10
5899;DHT22;2975;50.956;6.962;2022-08-21T15:08:38;24.60;68.00
5899;DHT22;2975;50.956;6.962;2022-08-21T15:11:05;24.60;67.20
5899;DHT22;2975;50.956;6.962;2022-08-21T15:13:31;24.50;67.00
5899;DHT22;2975;50.956;6.962;2022-08-21T15:15:58;24.50;67.10
5899;DHT22;2975;50.956;6.962;2022-08-21T15:18:25;24.50;67.20
5899;DHT22;2975;50.956;6.962;2022-08-21T15:20:52;24.50;67.20
5899;DHT22;2975;50.956;6.962;2022-08-21T15:23:18;24.50;66.80
5899;DHT22;2975;50.956;6.962;2022-08-21T15:25:46;24.50;67.40
5899;DHT22;2975;50.956;6.962;2022-08-21T15:28:12;24.50;67.70
5899;DHT22;2975;50.956;6.962;2022-08-21T15:30:40;24.60;67.70
5899;DHT22;2975;50.956;6.962;2022-08-21T15:33:06;24.60;68.00
5899;DHT22;2975;50.956;6.962;2022-08-21T15:35:32;24.60;68.30
5899;DHT22;2975;50.956;6.962;2022-08-21T15:37:58;24.70;68.30
5899;DHT22;2975;50.956;6.962;2022-08-21T15:40:24;24.80;68.20
5899;DHT22;2975;50.956;6.962;2022-08-21T15:42:52;24.90;67.80
5899;DHT22;2975;50.956;6.962;2022-08-21T15:45:21;24.90;68.00
5899;DHT22;2975;50.956;6.962;2022-08-21T15:47:48;24.90;67.80
5899;DHT22;2975;50.956;6.962;2022-08-21T15:50:14;25.00;68.10
5899;DHT22;2975;50.956;6.962;2022-08-21T15:52:40;24.90;67.60
5899;DHT22;2975;50.956;6.962;2022-08-21T15:55:07;25.00;68.00
5899;DHT22;2975;50.956;6.962;2022-08-21T15:57:34;25.10;67.50
5899;DHT22;2975;50.956;6.962;2022-08-21T16:00:06;25.20;67.10
5899;DHT22;2975;50.956;6.962;2022-08-21T16:02:37;25.30;66.60
5899;DHT22;2975;50.956;6.962;2022-08-21T16:05:04;25.40;66.50
5899;DHT22;2975;50.956;6.962;2022-08-21T16:07:30;25.40;66.00
5899;DHT22;2975;50.956;6.962;2022-08-21T16:09:55;25.40;66.00
5899;DHT22;2975;50.956;6.962;2022-08-21T16:12:30;25.40;65.40
5899;DHT22;2975;50.956;6.962;2022-08-21T16:14:58;25.50;65.80
5899;DHT22;2975;50.956;6.962;2022-08-21T16:17:33;25.50;65.90
5899;DHT22;2975;50.956;6.962;2022-08-21T16:20:00;25.60;65.10
5899;DHT22;2975;50.956;6.962;2022-08-21T16:22:26;25.60;64.70
5899;DHT22;2975;50.956;6.962;2022-08-21T16:24:52;25.80;64.40
5899;DHT22;2975;50.956;6.962;2022-08-21T16:27:17;26.00;64.50
5899;DHT22;2975;50.956;6.962;2022-08-21T16:29:44;26.00;64.10
5899;DHT22;2975;50.956;6.962;2022-08-21T16:32:11;26.20;64.20
5899;DHT22;2975;50.956;6.962;2022-08-21T16:34:40;26.20;63.50
5899;DHT22;2975;50.956;6.962;2022-08-21T16:37:07;26.20;63.30
5899;DHT22;2975;50.956;6.962;2022-08-21T16:39:33;26.20;62.80
5899;DHT22;2975;50.956;6.962;2022-08-21T16:41:59;26.10;62.40
5899;DHT22;2975;50.956;6.962;2022-08-21T16:44:24;26.10;62.90
5899;DHT22;2975;50.956;6.962;2022-08-21T16:46:51;26.20;62.90
5899;DHT22;2975;50.956;6.962;2022-08-21T16:49:17;26.20;62.10
5899;DHT22;2975;50.956;6.962;2022-08-21T16:51:42;26.10;62.40
5899;DHT22;2975;50.956;6.962;2022-08-21T16:54:09;26.00;62.70
5899;DHT22;2975;50.956;6.962;2022-08-21T16:56:34;25.80;62.90
5899;DHT22;2975;50.956;6.962;2022-08-21T16:59:02;25.70;63.40
5899;DHT22;2975;50.956;6.962;2022-08-21T17:01:31;25.70;63.30
5899;DHT22;2975;50.956;6.962;2022-08-21T17:03:57;25.60;63.80
5899;DHT22;2975;50.956;6.962;2022-08-21T17:06:23;25.40;64.90
5899;DHT22;2975;50.956;6.962;2022-08-21T17:08:49;25.30;65.60
5899;DHT22;2975;50.956;6.962;2022-08-21T17:11:31;25.30;66.10
5899;DHT22;2975;50.956;6.962;2022-08-21T17:14:00;25.10;66.00
5899;DHT22;2975;50.956;6.962;2022-08-21T17:16:27;25.10;66.20
5899;DHT22;2975;50.956;6.962;2022-08-21T17:18:53;25.10;66.70
5899;DHT22;2975;50.956;6.962;2022-08-21T17:21:18;24.90;67.20
5899;DHT22;2975;50.956;6.962;2022-08-21T17:23:45;24.90;67.50
5899;DHT22;2975;50.956;6.962;2022-08-21T17:26:12;24.80;68.20
5899;DHT22;2975;50.956;6.962;2022-08-21T17:28:38;24.70;68.30